Krotz Springs, Louisiana
Current Conditions -  °F | °C
As of 2:15 AM on Monday 24 Nov 2014 (Local Time) from KHZR Reporting Station
Haze Haze  
Wind Chill: 64°   Ceiling: Unl
Heat Index: 64°   Visibility: 5mi
Dew Point: 64°   Wind: 3mph
Humidity: 97%   Direction: 220°SW
Pressure: 29.73"   Gusts: NA
Location:  30.54°N, 91.75°W
Report Text: KHZR 240815Z AUTO 22003KT 5SM BR CLR 18/18 A2973 RMK AO2 T01800175
Loading
Personal Weather Stations






























Interactive Weather Map New forecast layout! Learn more

10-Day Weather Forecast

Advertisements
Track Severe Weather on mobile